Main page
METAR-TAF:

METAR-TAF

Airports :

Sardar Vallabhbhai Patel International Airport

Ahmedabad, India

latitude: 23-04N, longitude: 072-38E, elevation: 55 m

Current weather observation

The report was made 29 minutes ago, at 20:30 UTC
Wind 6 kt from the West/Northwest
Temperature 16°C
Humidity 77%
Pressure 1009 hPa
Visibility: 3500 m
Few clouds at a height of 8000 ft
haze

METAR: VAAH 222030Z 30006KT 3500 HZ FEW080 16/12 Q1009 NOSIG

Time: 02:29 (20:59 UTC)

Forecast

The report was made 59 minutes ago, at 20:00 UTC
Forecast valid from 22 at 21 UTC to 23 at 06 UTC
Wind 5 kt from the Northwest
Visibility: 3000 m
haze, smoke
Becoming
from 23 at 01 UTC to 23 at 03 UTC
Visibility: 1500 m
mist, haze
Becoming
from 23 at 04 UTC to 23 at 06 UTC
Visibility: 4000 m
smoke

TAF: VAAH 222000Z 2221/2306 32005KT 3000 HZ FU NSC BECMG 2301/2303 1500 BR HZ BECMG 2304/2306 4000 FU

Weather observations and forecasts of more than 4000 airports (METAR and TAF reports).

The available stations are represented by yellow and red dots on the map.

Hover mouse over dot to see the name of the station.

Then click to see weather observations and forecasts.

To change the map : click on the green buttons with a black cross to zoom in, on the green button with a dash to zoom out, or on the green arrows for adjacent maps.


METAR-TAF: